Time;durP1;ratioP1;P1;durP2;ratioP2;P2;SDS_P1;SDS_P2;PMS_P1;PMS_P2;Temp;Humidity;BMP_temperature;BMP_pressure;BME280_temperature;BME280_humidity;BME280_pressure;Samples;Min_cycle;Max_cycle;Signal;HPM_P1;HPM_P2
2021/06/17 00:02:13;;;;;;;5.00;4.00;;;;;;;18.36;60.58;96817.47;1670127;84;21351;-81
2021/06/17 00:04:39;;;;;;;4.90;3.87;;;;;;;18.45;60.31;96825.88;1668462;84;20956;-80
2021/06/17 00:07:05;;;;;;;4.17;3.70;;;;;;;18.52;60.16;96820.02;1670058;84;20958;-81
2021/06/17 00:09:31;;;;;;;4.58;3.80;;;;;;;18.59;59.77;96822.07;1670384;84;21032;-81
2021/06/17 00:12:00;;;;;;;5.90;3.62;;;;;;;18.69;59.39;96816.30;1665535;84;20954;-81
2021/06/17 00:14:25;;;;;;;4.33;3.77;;;;;;;18.79;59.02;96820.02;1684769;84;20963;-81
2021/06/17 00:16:51;;;;;;;5.35;3.90;;;;;;;18.91;58.40;96818.75;1687199;84;20934;-80
2021/06/17 00:19:16;;;;;;;4.42;3.42;;;;;;;19.01;58.42;96818.20;1679405;84;21262;-80
2021/06/17 00:21:42;;;;;;;6.40;4.25;;;;;;;19.09;58.16;96821.33;1675742;84;20941;-81
2021/06/17 00:24:08;;;;;;;4.92;3.58;;;;;;;19.17;57.81;96815.73;1677317;84;21084;-80
2021/06/17 00:26:34;;;;;;;4.95;3.98;;;;;;;19.22;57.39;96815.08;1677411;84;21314;-81
2021/06/17 00:29:00;;;;;;;4.67;3.60;;;;;;;19.25;57.47;96818.56;1687485;84;21322;-80
2021/06/17 00:31:26;;;;;;;4.58;3.52;;;;;;;19.29;57.09;96821.55;1674084;84;20952;-81
2021/06/17 00:33:52;;;;;;;4.03;3.62;;;;;;;19.34;57.08;96815.08;1673755;84;20916;-81
2021/06/17 00:36:17;;;;;;;4.05;3.17;;;;;;;19.42;56.79;96820.03;1672630;84;21270;-81
2021/06/17 00:38:43;;;;;;;5.17;3.85;;;;;;;19.47;56.25;96808.29;1673743;84;20977;-81
2021/06/17 00:41:09;;;;;;;6.20;3.70;;;;;;;19.53;56.19;96814.50;1681061;84;20953;-80
2021/06/17 00:43:35;;;;;;;5.80;3.90;;;;;;;19.59;56.48;96813.09;1668734;84;21290;-81
2021/06/17 00:46:01;;;;;;;5.22;4.28;;;;;;;19.63;55.97;96811.60;1672674;84;21021;-81
2021/06/17 00:48:26;;;;;;;6.53;3.85;;;;;;;19.66;55.84;96808.50;1673105;84;20938;-81
2021/06/17 00:50:55;;;;;;;4.20;3.80;;;;;;;19.70;55.69;96814.95;1676642;84;20937;-81
2021/06/17 00:53:28;;;;;;;5.20;3.60;;;;;;;19.74;55.28;96801.59;1678898;84;20925;-81
2021/06/17 00:55:54;;;;;;;5.12;3.62;;;;;;;19.78;55.58;96802.73;1677257;84;20974;-80
2021/06/17 00:58:20;;;;;;;3.42;3.10;;;;;;;19.79;55.57;96810.13;1650044;86;20997;-81
2021/06/17 01:00:46;;;;;;;5.70;3.70;;;;;;;19.77;55.51;96809.03;1650372;84;20969;-81
2021/06/17 01:03:11;;;;;;;5.60;3.98;;;;;;;19.76;54.97;96808.75;1686946;84;20952;-82
2021/06/17 01:05:38;;;;;;;3.98;3.40;;;;;;;19.81;54.81;96804.61;1683850;84;20973;-80
2021/06/17 01:08:37;;;;;;;4.72;3.83;;;;;;;19.86;54.75;96805.55;1680715;84;20937;-81
2021/06/17 01:11:17;;;;;;;4.55;3.60;;;;;;;19.90;54.45;96809.84;1646920;85;20997;-81
2021/06/17 01:14:06;;;;;;;6.28;3.60;;;;;;;19.92;54.69;96803.81;1642980;85;21311;-81
2021/06/17 01:17:02;;;;;;;4.83;3.77;;;;;;;19.92;54.67;96798.55;1665184;85;21253;-82
2021/06/17 01:19:42;;;;;;;4.50;3.12;;;;;;;19.90;54.52;96801.41;1679978;85;21348;-81
2021/06/17 01:22:19;;;;;;;4.50;3.83;;;;;;;19.91;54.37;96800.90;1684405;84;21063;-80
2021/06/17 01:25:09;;;;;;;4.62;3.33;;;;;;;19.92;54.49;96798.55;1684106;84;21000;-80
2021/06/17 01:27:40;;;;;;;6.80;4.53;;;;;;;19.91;54.38;96798.27;1684157;84;21073;-80
2021/06/17 01:30:12;;;;;;;4.67;3.60;;;;;;;19.90;54.62;96801.93;1679300;84;20926;-80
2021/06/17 01:32:39;;;;;;;5.85;3.40;;;;;;;19.92;54.35;96803.30;1678940;84;20969;-80
2021/06/17 01:35:06;;;;;;;4.70;3.35;;;;;;;19.91;54.59;96799.58;1676682;84;20908;-80
2021/06/17 01:37:32;;;;;;;4.87;3.40;;;;;;;19.88;54.44;96788.98;1647435;85;21060;-80
2021/06/17 01:39:58;;;;;;;4.72;3.98;;;;;;;19.87;54.52;96793.97;1668928;84;21319;-80
2021/06/17 01:42:24;;;;;;;4.53;3.58;;;;;;;19.87;54.36;96799.77;1660373;84;20918;-80
2021/06/17 01:44:55;;;;;;;4.87;3.47;;;;;;;19.89;53.97;96796.38;1679814;84;20922;-80
2021/06/17 01:47:21;;;;;;;5.05;3.72;;;;;;;19.94;53.85;96792.52;1678873;84;21043;-80
2021/06/17 01:49:47;;;;;;;4.78;3.80;;;;;;;19.95;54.28;96792.80;1679440;84;21013;-80
2021/06/17 01:52:12;;;;;;;6.58;3.67;;;;;;;19.96;53.90;96785.98;1679476;84;20997;-80
2021/06/17 01:54:41;;;;;;;4.20;3.15;;;;;;;19.97;54.09;96782.82;1679319;84;21029;-80
2021/06/17 01:57:08;;;;;;;6.62;3.70;;;;;;;19.97;53.83;96793.38;1679415;84;21310;-80
2021/06/17 01:59:34;;;;;;;4.42;3.75;;;;;;;19.97;54.14;96784.14;1660404;84;20998;-80
2021/06/17 02:02:00;;;;;;;4.70;3.42;;;;;;;19.95;54.17;96780.94;1652548;85;21038;-80
2021/06/17 02:04:26;;;;;;;5.33;3.75;;;;;;;19.92;54.01;96779.56;1679527;84;20964;-80
2021/06/17 02:06:52;;;;;;;4.42;3.15;;;;;;;19.92;53.95;96782.20;1677667;84;21254;-80
2021/06/17 02:09:18;;;;;;;3.50;2.90;;;;;;;19.92;54.10;96789.31;1679539;84;20996;-80
2021/06/17 02:11:44;;;;;;;4.92;3.45;;;;;;;19.90;54.06;96785.59;1659957;84;20960;-80
2021/06/17 02:14:11;;;;;;;3.30;3.00;;;;;;;19.89;54.25;96789.27;1682421;84;21346;-80
2021/06/17 02:16:41;;;;;;;5.03;3.87;;;;;;;19.88;53.89;96784.22;1694666;84;21047;-80
2021/06/17 02:19:06;;;;;;;4.62;3.50;;;;;;;19.87;54.03;96779.47;1679118;84;21021;-80
2021/06/17 02:21:32;;;;;;;5.55;3.67;;;;;;;19.86;53.95;96784.45;1660711;84;21305;-80
2021/06/17 02:23:59;;;;;;;4.37;3.30;;;;;;;19.86;54.36;96781.02;1678841;84;20965;-81
2021/06/17 02:26:26;;;;;;;4.40;3.60;;;;;;;19.83;54.14;96784.09;1678150;84;20949;-80
2021/06/17 02:28:52;;;;;;;4.70;3.37;;;;;;;19.79;54.61;96778.48;1678365;84;21022;-81
2021/06/17 02:31:21;;;;;;;4.80;3.45;;;;;;;19.73;54.37;96772.81;1651261;85;20928;-80
2021/06/17 02:33:48;;;;;;;5.10;3.65;;;;;;;19.73;54.71;96771.50;1674990;84;21017;-80
2021/06/17 02:36:14;;;;;;;3.92;3.55;;;;;;;19.68;54.53;96770.84;1667934;84;21009;-80
2021/06/17 02:38:41;;;;;;;5.87;3.62;;;;;;;19.67;54.90;96772.40;1654907;84;20976;-80
2021/06/17 02:41:09;;;;;;;3.75;3.33;;;;;;;19.62;54.59;96777.05;1680159;84;20977;-80
2021/06/17 02:43:38;;;;;;;4.08;3.20;;;;;;;19.59;54.84;96773.56;1679476;84;20949;-80
2021/06/17 02:46:04;;;;;;;3.95;3.35;;;;;;;19.56;54.50;96773.22;1679877;84;21032;-80
2021/06/17 02:48:31;;;;;;;3.45;3.15;;;;;;;19.54;54.88;96769.98;1679687;84;21041;-81
2021/06/17 02:50:57;;;;;;;3.80;3.40;;;;;;;19.51;54.63;96772.53;1680346;84;21298;-80
2021/06/17 02:53:22;;;;;;;6.30;3.58;;;;;;;19.48;54.59;96774.31;1680061;84;20949;-80
2021/06/17 02:55:49;;;;;;;3.50;3.17;;;;;;;19.46;54.94;96775.06;1679178;84;21000;-80
2021/06/17 02:58:40;;;;;;;4.00;3.20;;;;;;;19.43;54.80;96771.56;1677647;84;21049;-80
2021/06/17 03:01:49;;;;;;;5.55;2.83;;;;;;;19.42;54.58;96779.19;1679131;84;20985;-80
2021/06/17 03:04:20;;;;;;;4.65;3.05;;;;;;;19.42;54.57;96776.04;1679944;84;20993;-80
2021/06/17 03:06:49;;;;;;;5.47;3.47;;;;;;;19.40;54.76;96777.30;1677948;84;21418;-80
2021/06/17 03:09:21;;;;;;;4.00;2.87;;;;;;;19.39;55.00;96774.38;1697185;84;21316;-80
2021/06/17 03:11:49;;;;;;;3.55;3.12;;;;;;;19.36;54.96;96778.76;1681333;84;20965;-81
2021/06/17 03:14:21;;;;;;;3.90;3.47;;;;;;;19.33;55.97;96776.59;1681237;84;21346;-80
2021/06/17 03:16:49;;;;;;;5.05;3.67;;;;;;;19.26;56.47;96783.80;1707451;83;21026;-80
2021/06/17 03:19:15;;;;;;;8.18;3.55;;;;;;;19.12;57.22;96789.78;1660856;85;21088;-80
2021/06/17 03:21:48;;;;;;;4.20;3.08;;;;;;;19.04;57.59;96783.53;1679769;84;20990;-80
2021/06/17 03:24:14;;;;;;;5.75;3.58;;;;;;;18.98;58.71;96793.12;1660415;85;20953;-80
2021/06/17 03:26:41;;;;;;;4.65;3.25;;;;;;;18.86;58.42;96791.75;1679570;84;20941;-80
2021/06/17 03:29:07;;;;;;;3.85;3.27;;;;;;;18.76;58.91;96796.77;1679238;84;21000;-80
2021/06/17 03:31:32;;;;;;;4.20;3.33;;;;;;;18.66;59.41;96795.17;1652861;84;20968;-80
2021/06/17 03:33:59;;;;;;;5.17;3.30;;;;;;;18.58;60.07;96801.53;1681608;84;21032;-80
2021/06/17 03:36:24;;;;;;;5.28;3.40;;;;;;;18.50;60.00;96801.81;1678686;84;21017;-80
2021/06/17 03:38:51;;;;;;;3.33;3.02;;;;;;;18.47;60.08;96801.46;1682728;84;21072;-80
2021/06/17 03:41:16;;;;;;;3.50;3.17;;;;;;;18.43;60.04;96802.94;1665343;84;21065;-80
2021/06/17 03:43:42;;;;;;;6.05;3.58;;;;;;;18.37;60.18;96805.11;1669419;84;20941;-80
2021/06/17 03:46:10;;;;;;;5.17;3.67;;;;;;;18.35;60.19;96807.97;1679432;84;21008;-80
2021/06/17 03:48:41;;;;;;;7.60;4.00;;;;;;;18.33;60.41;96807.39;1678536;84;20989;-80
2021/06/17 03:51:08;;;;;;;4.58;3.33;;;;;;;18.28;60.93;96805.42;1672788;84;20969;-80
2021/06/17 03:53:33;;;;;;;4.10;3.70;;;;;;;18.22;61.73;96801.05;1667095;84;21250;-80
2021/06/17 03:55:59;;;;;;;5.37;4.20;;;;;;;18.15;61.40;96804.77;1679189;84;20941;-80
2021/06/17 03:58:25;;;;;;;5.03;4.30;;;;;;;18.11;62.07;96804.41;1679299;84;21040;-80
2021/06/17 04:00:55;;;;;;;4.55;4.08;;;;;;;18.03;62.21;96799.92;1676415;84;21059;-80
2021/06/17 04:03:21;;;;;;;5.40;3.85;;;;;;;17.95;62.12;96812.35;1672410;84;20957;-80
2021/06/17 04:05:47;;;;;;;5.40;3.77;;;;;;;17.92;62.56;96811.48;1672708;84;21013;-80
2021/06/17 04:08:14;;;;;;;4.70;3.98;;;;;;;17.91;63.06;96811.70;1672049;84;21345;-80
2021/06/17 04:10:40;;;;;;;6.03;4.05;;;;;;;17.83;63.35;96808.02;1672524;84;20969;-79
2021/06/17 04:13:07;;;;;;;5.37;4.37;;;;;;;17.78;63.48;96807.87;1672497;84;20993;-80
2021/06/17 04:15:33;;;;;;;6.08;4.85;;;;;;;17.75;63.70;96806.48;1687489;84;20991;-80
2021/06/17 04:18:00;;;;;;;5.65;4.15;;;;;;;17.71;63.79;96809.23;1675769;84;21017;-80
2021/06/17 04:20:43;;;;;;;5.60;4.05;;;;;;;17.68;64.52;96806.52;1672459;84;21901;-80
2021/06/17 04:23:10;;;;;;;5.00;4.33;;;;;;;17.64;64.86;96808.47;1691211;84;20979;-80
2021/06/17 04:25:36;;;;;;;5.03;3.98;;;;;;;17.62;64.92;96810.00;1645329;84;20984;-80
2021/06/17 04:28:03;;;;;;;5.60;3.85;;;;;;;17.65;65.06;96812.19;1669803;84;21562;-80
2021/06/17 04:30:30;;;;;;;8.48;4.22;;;;;;;17.67;65.73;96804.09;1654469;85;20949;-80
2021/06/17 04:32:58;;;;;;;5.78;3.98;;;;;;;17.62;65.71;96807.37;1649042;85;20972;-80
2021/06/17 04:35:24;;;;;;;4.90;4.00;;;;;;;17.62;66.26;96805.25;1664630;85;21246;-80
2021/06/17 04:37:51;;;;;;;4.65;3.95;;;;;;;17.57;66.12;96809.84;1655410;85;21069;-80
2021/06/17 04:40:18;;;;;;;4.60;4.05;;;;;;;17.57;66.65;96817.73;1656108;85;21028;-80
2021/06/17 04:42:44;;;;;;;4.33;3.52;;;;;;;17.54;66.71;96812.88;1647477;85;20980;-80
2021/06/17 04:45:11;;;;;;;3.70;3.40;;;;;;;17.56;66.69;96820.55;1647508;85;21242;-80
2021/06/17 04:47:39;;;;;;;4.12;3.33;;;;;;;17.59;66.98;96807.81;1656366;85;20993;-80
2021/06/17 04:50:08;;;;;;;3.85;3.22;;;;;;;17.62;66.89;96817.08;1655932;85;21021;-80
2021/06/17 04:52:42;;;;;;;4.45;4.05;;;;;;;17.63;67.38;96818.17;1654864;85;21347;-79
2021/06/17 04:55:10;;;;;;;5.17;4.40;;;;;;;17.65;67.41;96819.27;1655811;85;21231;-80
2021/06/17 04:57:36;;;;;;;5.62;4.15;;;;;;;17.64;67.35;96820.29;1657228;85;20973;-80
2021/06/17 05:00:02;;;;;;;4.87;3.70;;;;;;;17.67;67.54;96825.11;1654043;85;20955;-80
2021/06/17 05:02:29;;;;;;;5.03;3.52;;;;;;;17.71;68.13;96818.42;1654735;85;20994;-80
2021/06/17 05:04:54;;;;;;;4.08;3.67;;;;;;;17.75;68.13;96814.88;1638155;85;21298;-80
2021/06/17 05:12:30;;;;;;;5.20;3.67;;;;;;;17.87;68.65;96821.81;1655253;85;21300;-79
2021/06/17 05:14:56;;;;;;;4.42;4.00;;;;;;;17.89;68.67;96816.34;1660620;85;20921;-80
2021/06/17 05:17:22;;;;;;;5.25;4.00;;;;;;;17.90;68.91;96821.41;1679354;85;20961;-80
2021/06/17 05:19:48;;;;;;;5.17;3.67;;;;;;;17.96;69.09;96824.98;1664262;85;20977;-80
2021/06/17 05:22:15;;;;;;;4.78;3.72;;;;;;;18.01;69.11;96827.76;1657024;85;21321;-80
2021/06/17 05:24:41;;;;;;;4.33;3.90;;;;;;;18.07;69.20;96826.10;1631798;87;20994;-80
2021/06/17 05:27:07;;;;;;;5.58;3.90;;;;;;;18.12;69.17;96826.24;1654524;85;21282;-80
2021/06/17 05:29:33;;;;;;;5.62;4.22;;;;;;;18.17;69.72;96824.55;1655409;85;21306;-80
2021/06/17 05:31:58;;;;;;;4.83;3.92;;;;;;;18.22;69.84;96827.84;1655709;85;20965;-80
2021/06/17 05:34:24;;;;;;;3.92;3.33;;;;;;;18.28;69.80;96833.05;1655379;85;20922;-80
2021/06/17 05:36:50;;;;;;;4.17;3.60;;;;;;;18.35;70.02;96836.91;1655665;85;20938;-80
2021/06/17 05:39:15;;;;;;;5.33;3.52;;;;;;;18.43;70.18;96838.45;1655486;85;21018;-80
2021/06/17 05:41:41;;;;;;;4.15;3.75;;;;;;;18.49;70.03;96838.87;1627341;85;21042;-80
2021/06/17 05:44:07;;;;;;;4.83;3.72;;;;;;;18.53;70.33;96842.16;1657724;85;21298;-80
2021/06/17 05:46:36;;;;;;;4.17;3.50;;;;;;;18.57;70.44;96842.55;1656522;85;21277;-80
2021/06/17 05:49:01;;;;;;;4.25;3.20;;;;;;;18.65;70.18;96846.20;1626315;85;21353;-80
2021/06/17 05:51:27;;;;;;;3.50;3.08;;;;;;;18.73;69.28;96846.44;1655305;85;21089;-80
2021/06/17 05:53:53;;;;;;;4.80;3.92;;;;;;;18.80;68.96;96851.09;1655312;85;21262;-80
2021/06/17 05:56:19;;;;;;;4.80;4.28;;;;;;;18.86;69.67;96857.58;1656189;85;20975;-80
2021/06/17 05:58:47;;;;;;;4.25;3.83;;;;;;;18.90;70.12;96859.28;1627504;87;20991;-80
2021/06/17 06:01:12;;;;;;;3.87;3.27;;;;;;;18.95;69.67;96863.35;1655892;85;20970;-80
2021/06/17 06:03:39;;;;;;;3.85;3.45;;;;;;;19.02;69.14;96866.69;1635699;85;21055;-80
2021/06/17 06:06:06;;;;;;;4.80;3.72;;;;;;;19.09;69.00;96862.16;1654968;85;21047;-79
2021/06/17 06:08:32;;;;;;;4.42;3.37;;;;;;;19.17;68.88;96868.41;1655672;85;20966;-80
2021/06/17 06:10:57;;;;;;;4.47;3.58;;;;;;;19.25;68.53;96865.19;1656084;85;21037;-80
2021/06/17 06:13:23;;;;;;;4.65;3.50;;;;;;;19.30;68.56;96867.42;1631684;85;20981;-80
2021/06/17 06:15:49;;;;;;;5.62;3.83;;;;;;;19.36;68.16;96870.98;1670704;85;20933;-80
2021/06/17 06:18:15;;;;;;;4.83;3.95;;;;;;;19.41;68.11;96875.08;1660719;85;20980;-80
2021/06/17 06:20:45;;;;;;;6.45;4.45;;;;;;;19.49;68.05;96874.75;1633000;87;21002;-80
2021/06/17 06:23:11;;;;;;;7.47;4.67;;;;;;;19.55;68.21;96881.80;1653026;85;21004;-80
2021/06/17 06:25:37;;;;;;;4.28;3.75;;;;;;;19.63;68.04;96880.14;1658273;85;20968;-80
2021/06/17 06:28:03;;;;;;;4.37;3.62;;;;;;;19.70;68.14;96886.13;1659882;85;21065;-80
2021/06/17 06:30:29;;;;;;;5.22;4.03;;;;;;;19.78;68.01;96886.30;1658775;85;20996;-80
2021/06/17 06:32:56;;;;;;;5.37;4.80;;;;;;;19.89;67.83;96889.98;1659742;85;21031;-80
2021/06/17 06:35:22;;;;;;;5.45;4.62;;;;;;;19.97;68.83;96879.89;1642710;86;20968;-80
2021/06/17 06:37:51;;;;;;;6.78;5.47;;;;;;;20.04;68.91;96887.19;1659468;85;21044;-80
2021/06/17 06:40:18;;;;;;;8.10;5.83;;;;;;;20.21;67.43;96879.39;1653704;85;20965;-80
2021/06/17 06:42:44;;;;;;;9.20;6.60;;;;;;;20.36;68.54;96874.97;1657844;85;21260;-80
2021/06/17 06:45:12;;;;;;;11.20;6.40;;;;;;;20.53;67.97;96883.00;1655521;85;20981;-80
2021/06/17 06:47:38;;;;;;;9.15;5.83;;;;;;;20.66;67.79;96880.08;1656603;85;21254;-80
2021/06/17 06:50:05;;;;;;;9.28;6.35;;;;;;;20.78;67.15;96884.83;1643286;85;20973;-80
2021/06/17 06:52:30;;;;;;;8.60;6.40;;;;;;;20.88;68.13;96885.04;1662923;85;20949;-81
2021/06/17 06:54:58;;;;;;;6.37;4.90;;;;;;;20.94;68.16;96877.48;1670371;85;20980;-80
2021/06/17 06:57:25;;;;;;;6.65;5.12;;;;;;;21.09;66.99;96875.66;1679441;85;20990;-80
2021/06/17 06:59:51;;;;;;;7.05;5.28;;;;;;;21.22;67.27;96870.61;1673898;85;21354;-80
2021/06/17 07:02:17;;;;;;;6.03;4.25;;;;;;;21.30;67.25;96866.80;1680483;84;20987;-80
2021/06/17 07:04:43;;;;;;;6.17;5.58;;;;;;;21.37;66.71;96873.55;1682393;85;20995;-80
2021/06/17 07:07:09;;;;;;;6.72;5.35;;;;;;;21.43;66.83;96871.27;1675440;85;21294;-80
2021/06/17 07:09:35;;;;;;;8.00;5.55;;;;;;;21.51;66.72;96865.61;1680746;85;20940;-80
2021/06/17 07:12:04;;;;;;;6.53;5.25;;;;;;;21.66;66.52;96871.67;1677328;84;20936;-80
2021/06/17 07:14:31;;;;;;;8.80;6.12;;;;;;;21.79;66.65;96875.81;1669805;85;20987;-81
2021/06/17 07:16:57;;;;;;;6.47;5.33;;;;;;;21.91;66.19;96877.87;1674933;85;21017;-80
2021/06/17 07:19:22;;;;;;;7.12;5.65;;;;;;;22.04;65.37;96883.36;1656213;85;21052;-80
2021/06/17 07:21:48;;;;;;;7.00;5.67;;;;;;;22.20;65.20;96880.44;1655478;85;20980;-81
2021/06/17 07:24:15;;;;;;;8.13;6.35;;;;;;;22.34;63.90;96882.50;1655549;85;20999;-80
2021/06/17 07:26:40;;;;;;;8.75;6.50;;;;;;;22.51;64.21;96885.63;1655579;85;20934;-80
2021/06/17 07:29:06;;;;;;;9.08;6.70;;;;;;;22.64;63.37;96882.63;1655557;85;21020;-80
2021/06/17 07:31:32;;;;;;;7.10;5.53;;;;;;;22.77;62.74;96887.54;1655688;85;20962;-80
2021/06/17 07:33:58;;;;;;;9.45;6.08;;;;;;;22.88;62.55;96885.85;1655889;85;21032;-80
2021/06/17 07:36:24;;;;;;;9.95;5.78;;;;;;;22.92;62.84;96892.25;1657465;85;21369;-80
2021/06/17 07:38:50;;;;;;;7.83;5.95;;;;;;;23.00;62.84;96889.98;1655283;85;21023;-80
2021/06/17 07:41:15;;;;;;;7.45;5.78;;;;;;;23.01;62.79;96896.88;1658118;85;21101;-80
2021/06/17 07:43:41;;;;;;;9.15;5.72;;;;;;;22.97;63.23;96892.33;1658901;85;21032;-80
2021/06/17 07:46:07;;;;;;;8.63;5.75;;;;;;;23.11;61.20;96888.25;1656298;85;21905;-80
2021/06/17 07:48:33;;;;;;;6.83;5.80;;;;;;;23.11;61.20;96888.25;1655353;85;20924;-80
2021/06/17 07:50:59;;;;;;;7.17;4.80;;;;;;;23.26;62.04;96892.36;1655980;85;21057;-80
2021/06/17 07:53:25;;;;;;;6.42;5.20;;;;;;;23.34;60.51;96881.84;1655656;85;21316;-81
2021/06/17 07:55:51;;;;;;;5.92;4.58;;;;;;;23.39;60.78;96894.34;1655626;85;20925;-80
2021/06/17 07:58:17;;;;;;;5.85;5.25;;;;;;;23.41;60.53;96899.67;1654416;85;20938;-80
2021/06/17 08:00:43;;;;;;;8.15;4.60;;;;;;;23.42;61.07;96901.27;1656109;85;21005;-80
2021/06/17 08:03:09;;;;;;;6.08;4.80;;;;;;;23.33;59.94;96901.45;1654577;86;21004;-80
2021/06/17 08:05:35;;;;;;;5.78;4.65;;;;;;;23.25;59.83;96901.37;1655322;86;21013;-81
2021/06/17 08:08:01;;;;;;;5.03;4.50;;;;;;;23.25;60.21;96900.04;1655564;86;21266;-81
2021/06/17 08:10:27;;;;;;;5.42;4.92;;;;;;;23.19;60.14;96898.40;1640106;86;21029;-80
2021/06/17 08:12:53;;;;;;;6.28;5.17;;;;;;;23.13;60.44;96904.70;1643341;85;21068;-80
2021/06/17 08:15:19;;;;;;;5.33;4.83;;;;;;;23.04;61.17;96904.85;1633924;86;20980;-80
2021/06/17 08:17:45;;;;;;;5.72;5.10;;;;;;;22.94;62.44;96904.72;1624249;86;20934;-80
2021/06/17 08:20:12;;;;;;;5.58;4.42;;;;;;;22.80;62.48;96904.30;1642952;86;20970;-80
2021/06/17 08:22:39;;;;;;;5.40;4.47;;;;;;;22.68;62.88;96903.08;1654386;86;20978;-80
2021/06/17 08:25:05;;;;;;;6.22;4.90;;;;;;;22.62;63.02;96911.22;1630262;86;20972;-80
2021/06/17 08:27:31;;;;;;;6.35;4.90;;;;;;;22.48;63.59;96906.79;1641194;86;20973;-80
2021/06/17 08:29:57;;;;;;;5.87;4.87;;;;;;;22.45;64.04;96912.06;1627569;86;21350;-80
2021/06/17 08:32:22;;;;;;;5.40;4.85;;;;;;;22.44;64.36;96914.39;1650438;86;20951;-80
2021/06/17 08:34:48;;;;;;;6.62;5.92;;;;;;;22.43;64.27;96908.83;1650861;86;21012;-80
2021/06/17 08:37:14;;;;;;;5.42;4.83;;;;;;;22.41;64.31;96911.44;1654863;86;21000;-80
2021/06/17 08:39:39;;;;;;;9.15;5.25;;;;;;;22.38;64.31;96920.67;1649403;86;21030;-80
2021/06/17 08:42:06;;;;;;;6.08;5.42;;;;;;;22.28;64.48;96919.20;1630739;86;21007;-80
2021/06/17 08:44:32;;;;;;;6.00;4.78;;;;;;;22.28;64.48;96919.20;1637685;86;20967;-81
2021/06/17 08:46:58;;;;;;;6.00;5.20;;;;;;;22.20;64.91;96919.63;1635724;86;20955;-80
2021/06/17 08:49:26;;;;;;;6.08;4.62;;;;;;;22.10;65.00;96918.13;1638470;86;21060;-80
2021/06/17 08:51:54;;;;;;;5.53;4.97;;;;;;;22.04;65.53;96913.79;1615435;86;20976;-80
2021/06/17 08:54:20;;;;;;;5.70;4.53;;;;;;;22.35;65.63;96913.23;1642134;86;21404;-80
2021/06/17 08:56:49;;;;;;;5.78;4.10;;;;;;;22.39;65.99;96918.31;1640895;86;20964;-80
2021/06/17 08:59:16;;;;;;;6.35;4.50;;;;;;;22.31;65.69;96921.91;1657748;86;20988;-80
2021/06/17 09:01:54;;;;;;;5.37;4.50;;;;;;;22.31;65.02;96916.61;1657706;85;21003;-80
2021/06/17 09:04:25;;;;;;;5.20;4.70;;;;;;;22.27;65.22;96924.73;1657589;85;20981;-80
2021/06/17 09:07:04;;;;;;;4.40;3.92;;;;;;;22.20;64.91;96923.59;1661452;85;21024;-80
2021/06/17 09:09:40;;;;;;;5.92;4.78;;;;;;;22.07;65.27;96924.72;1634457;87;21073;-80
2021/06/17 09:12:09;;;;;;;5.03;4.53;;;;;;;21.94;65.76;96930.81;1660478;85;21005;-80
2021/06/17 09:14:35;;;;;;;5.22;4.72;;;;;;;21.78;66.13;96929.23;1658973;85;21032;-80
2021/06/17 09:17:08;;;;;;;5.42;4.78;;;;;;;21.72;66.63;96932.84;1674950;85;21053;-80
2021/06/17 09:19:42;;;;;;;4.53;4.12;;;;;;;21.71;66.89;96930.45;1655928;85;20977;-80
2021/06/17 09:22:10;;;;;;;5.03;4.42;;;;;;;21.70;66.91;96927.52;1655848;85;20977;-80
2021/06/17 09:24:38;;;;;;;5.03;4.47;;;;;;;21.65;67.33;96923.48;1655971;85;20973;-80
2021/06/17 09:27:35;;;;;;;6.55;4.47;;;;;;;21.61;67.51;96921.00;1626537;87;21021;-81
2021/06/17 09:30:14;;;;;;;4.78;4.28;;;;;;;21.64;67.73;96918.71;1640807;85;21013;-80
2021/06/17 09:32:50;;;;;;;4.78;4.08;;;;;;;22.03;67.83;96923.57;1656021;85;21318;-80
2021/06/17 09:35:25;;;;;;;5.47;4.70;;;;;;;22.14;66.82;96931.98;1656931;85;21001;-81
2021/06/17 09:38:04;;;;;;;4.95;4.45;;;;;;;22.41;66.15;96924.16;1654563;85;20995;-80
2021/06/17 09:40:32;;;;;;;4.55;4.15;;;;;;;22.33;65.48;96930.41;1636454;85;20942;-80
2021/06/17 09:43:17;;;;;;;4.47;4.05;;;;;;;22.18;65.79;96929.66;1637203;87;21008;-80
2021/06/17 09:46:00;;;;;;;6.00;4.80;;;;;;;22.08;66.40;96926.31;1656051;85;21058;-80
2021/06/17 09:48:43;;;;;;;7.28;3.90;;;;;;;22.02;67.30;96925.94;1670933;85;21021;-80
2021/06/17 09:51:41;;;;;;;5.45;4.10;;;;;;;22.20;67.08;96928.89;1654928;85;21032;-80
2021/06/17 09:54:26;;;;;;;4.65;4.22;;;;;;;22.71;67.20;96919.00;1655742;85;20957;-80
2021/06/17 09:57:15;;;;;;;4.95;4.45;;;;;;;23.09;66.25;96906.75;1654763;85;20942;-80
2021/06/17 09:59:55;;;;;;;5.20;4.70;;;;;;;23.08;65.43;96905.95;1683247;84;20920;-80
2021/06/17 10:02:35;;;;;;;5.97;4.33;;;;;;;22.90;65.99;96908.41;1676543;84;20942;-81
2021/06/17 10:05:21;;;;;;;4.42;3.98;;;;;;;22.92;66.24;96898.87;1702343;83;21231;-81
2021/06/17 10:07:47;;;;;;;5.53;5.03;;;;;;;23.02;65.09;96901.66;1676489;85;20924;-81
2021/06/17 10:10:16;;;;;;;6.42;4.92;;;;;;;23.32;64.19;96903.31;1690013;84;20954;-81
2021/06/17 10:12:42;;;;;;;5.22;4.55;;;;;;;23.77;62.88;96909.33;1670390;85;21024;-81
2021/06/17 10:15:09;;;;;;;5.20;4.20;;;;;;;23.79;62.89;96906.70;1682652;85;21069;-81
2021/06/17 10:17:35;;;;;;;8.60;5.40;;;;;;;23.64;62.08;96910.55;1656625;84;20946;-82
2021/06/17 10:20:04;;;;;;;6.33;4.60;;;;;;;23.71;60.11;96907.14;1672430;85;20924;-82
2021/06/17 10:22:32;;;;;;;5.87;4.00;;;;;;;24.06;58.86;96912.45;1682508;84;20986;-81
2021/06/17 10:24:59;;;;;;;7.17;4.28;;;;;;;24.48;59.41;96901.36;1670211;85;20994;-81
2021/06/17 10:27:42;;;;;;;6.15;4.42;;;;;;;24.89;58.31;96900.73;1677525;84;21046;-81
2021/06/17 10:30:10;;;;;;;6.50;5.15;;;;;;;25.20;57.05;96895.02;1688442;83;21006;-81
2021/06/17 10:32:41;;;;;;;4.35;3.95;;;;;;;25.43;57.70;96902.00;1709697;83;21220;-81
2021/06/17 10:35:07;;;;;;;5.03;3.75;;;;;;;25.65;57.06;96902.28;1706127;84;20991;-81
2021/06/17 10:37:36;;;;;;;5.47;4.15;;;;;;;25.71;58.99;96895.95;1706014;84;20968;-81
2021/06/17 10:40:16;;;;;;;4.90;3.77;;;;;;;25.83;58.95;96891.14;1705476;83;20983;-81
2021/06/17 10:42:46;;;;;;;5.87;4.40;;;;;;;25.77;55.14;96888.76;1664779;85;21023;-81
2021/06/17 10:45:15;;;;;;;5.97;4.37;;;;;;;25.93;57.18;96886.36;1697168;83;20971;-81
2021/06/17 10:47:48;;;;;;;4.30;3.72;;;;;;;26.12;53.55;96886.61;1688092;83;20928;-81
2021/06/17 10:50:21;;;;;;;5.08;3.67;;;;;;;26.34;53.73;96885.75;1701034;83;21366;-81
2021/06/17 10:53:14;;;;;;;4.53;3.52;;;;;;;26.48;52.97;96885.48;1704768;83;20923;-81
2021/06/17 10:55:59;;;;;;;4.55;3.20;;;;;;;26.42;53.32;96891.11;1704487;84;20916;-81
2021/06/17 10:58:46;;;;;;;4.90;3.65;;;;;;;26.21;49.91;96878.34;1647236;84;21053;-81
2021/06/17 11:01:41;;;;;;;4.78;4.08;;;;;;;26.10;51.09;96881.55;1592552;86;21040;-82
2021/06/17 11:04:19;;;;;;;4.20;3.75;;;;;;;26.28;52.66;96876.98;1671196;84;20919;-82
2021/06/17 11:07:05;;;;;;;4.95;4.00;;;;;;;26.44;50.88;96876.45;1653411;84;21323;-82
2021/06/17 11:09:47;;;;;;;4.30;3.80;;;;;;;26.58;52.09;96868.69;1657560;86;21010;-81
2021/06/17 11:12:25;;;;;;;4.55;4.15;;;;;;;26.73;52.23;96875.83;1653121;84;21047;-82
2021/06/17 11:14:57;;;;;;;4.15;3.75;;;;;;;26.91;49.18;96861.88;1671307;86;20987;-81
2021/06/17 11:17:33;;;;;;;4.83;3.83;;;;;;;26.79;50.92;96856.86;1672051;86;20954;-81
2021/06/17 11:20:12;;;;;;;5.12;3.50;;;;;;;26.79;50.92;96856.86;1672654;84;21303;-82
2021/06/17 11:22:42;;;;;;;4.40;4.00;;;;;;;26.42;52.24;96873.27;1671982;84;20944;-82
2021/06/17 11:25:23;;;;;;;5.87;4.03;;;;;;;26.42;52.24;96873.27;1656894;84;21025;-81
2021/06/17 11:28:07;;;;;;;;;;;;;;;26.19;52.96;96871.13;1708547;83;21003;-81
2021/06/17 11:30:41;;;;;;;5.37;4.35;;;;;;;26.00;52.39;96864.24;1706362;84;20134;-81
2021/06/17 11:33:33;;;;;;;5.67;4.40;;;;;;;25.76;53.35;96869.33;1679241;84;21369;-80
2021/06/17 11:36:09;;;;;;;7.15;5.12;;;;;;;25.48;52.20;96867.95;1699307;84;21315;-82
2021/06/17 11:38:35;;;;;;;5.30;4.80;;;;;;;25.24;53.05;96870.85;1705844;84;21308;-82
2021/06/17 11:41:15;;;;;;;5.22;4.72;;;;;;;25.26;53.60;96870.85;1697342;84;20999;-82
2021/06/17 11:43:41;;;;;;;5.75;4.55;;;;;;;25.52;52.43;96858.90;1699793;84;20956;-81
2021/06/17 11:46:22;;;;;;;6.53;4.45;;;;;;;25.81;52.18;96856.55;1705907;84;21257;-82
2021/06/17 11:48:52;;;;;;;;;;;;;;;26.07;52.75;96858.66;1707086;84;21007;-81
2021/06/17 11:51:18;;;;;;;5.50;4.22;;;;;;;26.31;51.01;96850.34;1697088;84;20094;-82